createdAt,value
2023-02-19T00:01:45.130Z,97673.34
2023-02-19T00:04:16.287Z,97681.38
2023-02-19T00:06:43.901Z,97670.78
2023-02-19T00:09:11.747Z,97670.09
2023-02-19T00:11:38.763Z,97663.00
2023-02-19T00:14:05.667Z,97658.19
2023-02-19T00:21:28.349Z,97646.09
2023-02-19T00:24:01.868Z,97643.53
2023-02-19T00:31:22.363Z,97647.56
2023-02-19T00:33:51.337Z,97654.13
2023-02-19T00:36:18.357Z,97648.53
2023-02-19T00:38:46.053Z,97645.97
2023-02-19T00:41:14.722Z,97650.94
2023-02-19T00:43:41.199Z,97643.97
2023-02-19T00:53:27.522Z,97637.78
2023-02-19T00:55:54.041Z,97638.59
2023-02-19T00:58:20.501Z,97641.00
2023-02-19T01:00:47.181Z,97637.09
2023-02-19T01:03:13.777Z,97630.78
2023-02-19T01:05:40.334Z,97648.13
2023-02-19T01:08:07.008Z,97644.22
2023-02-19T01:10:33.643Z,97630.53
2023-02-19T01:13:00.242Z,97623.81
2023-02-19T01:15:26.891Z,97628.25
2023-02-19T01:17:53.496Z,97630.25
2023-02-19T01:20:19.952Z,97623.84
2023-02-19T01:22:46.508Z,97629.97
2023-02-19T01:25:13.231Z,97618.81
2023-02-19T01:27:39.774Z,97625.84
2023-02-19T01:30:06.689Z,97616.28
2023-02-19T01:32:33.402Z,97616.03
2023-02-19T01:34:59.906Z,97627.72
2023-02-19T01:37:26.754Z,97618.72
2023-02-19T01:39:53.349Z,97613.34
2023-02-19T01:42:19.937Z,97614.56
2023-02-19T01:44:46.415Z,97612.28
2023-02-19T01:47:14.906Z,97615.34
2023-02-19T01:49:54.847Z,97605.69
2023-02-19T01:52:26.536Z,97614.44
2023-02-19T01:54:54.426Z,97616.72
2023-02-19T01:57:24.313Z,97613.63
2023-02-19T01:59:54.541Z,97611.47
2023-02-19T02:02:22.445Z,97640.06
2023-02-19T02:04:48.978Z,97611.06
2023-02-19T02:07:16.431Z,97611.19
2023-02-19T02:09:42.949Z,97604.50
2023-02-19T02:12:09.428Z,97618.81
2023-02-19T02:17:12.604Z,97609.97
2023-02-19T02:20:00.565Z,97606.91
2023-02-19T02:22:34.944Z,97613.03
2023-02-19T02:25:31.956Z,97616.28
2023-02-19T02:28:13.600Z,97611.19
2023-02-19T02:31:02.876Z,97611.06
2023-02-19T02:33:47.735Z,97610.00
2023-02-19T02:36:22.247Z,97606.63
2023-02-19T02:38:50.124Z,97615.47
2023-02-19T02:41:16.842Z,97608.41
2023-02-19T02:43:43.592Z,97608.78
2023-02-19T02:46:19.812Z,97601.25
2023-02-19T02:48:51.326Z,97605.56
2023-02-19T02:51:34.438Z,97601.56
2023-02-19T02:54:08.205Z,97594.94
2023-02-19T02:56:35.809Z,97601.28
2023-02-19T02:59:05.429Z,97608.38
2023-02-19T03:01:52.202Z,97602.31
2023-02-19T03:04:44.600Z,97594.53
2023-02-19T03:07:12.201Z,97595.38
2023-02-19T03:09:42.667Z,97592.28
2023-02-19T03:12:15.546Z,97586.09
2023-02-19T03:14:51.371Z,97579.78
2023-02-19T03:17:29.101Z,97590.34
2023-02-19T03:19:58.564Z,97592.66
2023-02-19T03:22:31.733Z,97599.38
2023-02-19T03:25:07.361Z,97591.34
2023-02-19T03:27:38.124Z,97588.22
2023-02-19T03:30:11.245Z,97580.59
2023-02-19T03:32:48.737Z,97591.22
2023-02-19T03:35:23.231Z,97583.81
2023-02-19T03:37:55.356Z,97576.00
2023-02-19T03:40:26.068Z,97581.16
2023-02-19T03:43:19.933Z,97595.75
2023-02-19T03:45:55.467Z,97590.66
2023-02-19T03:48:30.239Z,97580.84
2023-02-19T03:56:35.235Z,97581.66
2023-02-19T03:59:19.094Z,97573.63
2023-02-19T04:02:19.270Z,97576.56
2023-02-19T04:04:51.873Z,97573.88
2023-02-19T04:07:18.697Z,97569.31
2023-02-19T04:09:49.523Z,97573.59
2023-02-19T04:12:18.223Z,97576.31
2023-02-19T04:15:10.184Z,97569.88
2023-02-19T04:17:42.289Z,97563.84
2023-02-19T04:20:10.741Z,97558.72
2023-02-19T04:22:39.056Z,97558.59
2023-02-19T04:25:06.382Z,97566.91
2023-02-19T04:27:36.931Z,97558.59
2023-02-19T04:30:05.180Z,97553.75
2023-02-19T04:32:31.786Z,97566.38
2023-02-19T04:34:58.329Z,97569.31
2023-02-19T04:37:24.909Z,97565.84
2023-02-19T04:39:51.545Z,97558.72
2023-02-19T04:42:18.013Z,97571.44
2023-02-19T04:44:44.590Z,97569.03
2023-02-19T04:47:11.175Z,97569.56
2023-02-19T04:49:38.263Z,97571.72
2023-02-19T04:52:04.854Z,97584.09
2023-02-19T04:54:31.491Z,97569.31
2023-02-19T05:06:43.669Z,97568.09
2023-02-19T05:09:10.292Z,97565.78
2023-02-19T05:11:37.010Z,97563.66
2023-02-19T05:14:03.613Z,97563.69
2023-02-19T05:16:30.353Z,97563.00
2023-02-19T05:18:56.882Z,97569.56
2023-02-19T05:21:23.387Z,97570.75
2023-02-19T05:23:50.068Z,97571.19
2023-02-19T05:26:19.670Z,97570.91
2023-02-19T05:28:48.181Z,97568.88
2023-02-19T05:33:41.768Z,97567.81
2023-02-19T05:38:37.228Z,97562.16
2023-02-19T05:41:30.500Z,97559.28
2023-02-19T05:43:57.822Z,97561.75
2023-02-19T05:46:27.162Z,97543.56
2023-02-19T05:48:55.364Z,97548.25
2023-02-19T05:53:50.484Z,97538.81
2023-02-19T05:56:26.058Z,97554.50
2023-02-19T05:58:53.854Z,97545.72
2023-02-19T06:01:22.641Z,97550.78
2023-02-19T06:03:49.432Z,97545.00
2023-02-19T06:06:17.665Z,97544.38
2023-02-19T06:08:44.524Z,97533.38
2023-02-19T06:11:11.401Z,97542.84
2023-02-19T06:16:05.849Z,97537.44
2023-02-19T06:18:33.025Z,97524.84
2023-02-19T06:23:32.830Z,97529.81
2023-02-19T06:33:34.453Z,97526.81
2023-02-19T06:36:03.322Z,97528.31
2023-02-19T06:38:30.781Z,97529.31
2023-02-19T06:41:02.465Z,97533.88
2023-02-19T06:43:29.632Z,97527.88
2023-02-19T06:53:18.712Z,97519.81
2023-02-19T06:58:11.681Z,97509.81
2023-02-19T07:07:58.620Z,97514.41
2023-02-19T07:17:44.486Z,97508.41
2023-02-19T07:27:30.815Z,97512.22
2023-02-19T07:32:24.793Z,97498.66
2023-02-19T07:39:44.447Z,97500.59
2023-02-19T07:49:30.335Z,97498.88
2023-02-19T07:51:56.881Z,97496.84
2023-02-19T07:54:23.468Z,97487.19
2023-02-19T07:56:49.978Z,97501.06
2023-02-19T08:01:43.141Z,97477.47
2023-02-19T08:04:12.091Z,97484.78
2023-02-19T08:06:39.036Z,97484.69
2023-02-19T08:11:32.073Z,97476.53
2023-02-19T08:16:40.725Z,97475.53
2023-02-19T08:21:35.452Z,97478.31
2023-02-19T09:20:12.490Z,97456.84
2023-02-19T09:22:39.062Z,97441.53
2023-02-19T09:25:05.988Z,97445.63
2023-02-19T09:27:32.512Z,97434.56
2023-02-19T09:29:59.206Z,97439.97
2023-02-19T09:32:25.850Z,97430.88
2023-02-19T09:34:52.444Z,97421.34
2023-02-19T09:37:19.015Z,97426.53
2023-02-19T09:39:45.607Z,97427.47
2023-02-19T09:42:22.423Z,97421.25
2023-02-19T09:47:25.146Z,97429.06
2023-02-19T09:49:55.837Z,97429.56
2023-02-19T09:52:47.938Z,97411.28
2023-02-19T09:55:14.614Z,97410.88
2023-02-19T09:57:42.918Z,97408.19
2023-02-19T10:00:12.873Z,97396.41
2023-02-19T10:02:39.482Z,97413.47
2023-02-19T10:05:16.504Z,97404.53
2023-02-19T10:07:49.110Z,97412.56
2023-02-19T10:10:15.630Z,97396.81
2023-02-19T10:12:52.051Z,97409.53
2023-02-19T10:15:38.049Z,97408.69
2023-02-19T10:18:06.048Z,97391.19
2023-02-19T10:20:32.825Z,97404.00
2023-02-19T10:23:05.242Z,97413.53
2023-02-19T10:25:34.995Z,97408.31
2023-02-19T10:28:02.565Z,97416.59
2023-02-19T10:30:35.338Z,97423.75
2023-02-19T10:33:12.636Z,97423.47
2023-02-19T10:35:53.661Z,97413.22
2023-02-19T10:38:24.033Z,97405.84
2023-02-19T10:41:00.361Z,97403.81
2023-02-19T10:43:29.355Z,97399.38
2023-02-19T10:45:55.988Z,97398.72
2023-02-19T10:48:27.989Z,97403.56
2023-02-19T10:50:59.044Z,97401.47
2023-02-19T10:53:47.797Z,97397.84
2023-02-19T10:56:28.180Z,97399.81
2023-02-19T10:58:54.770Z,97395.75
2023-02-19T11:01:24.078Z,97396.50
2023-02-19T11:03:52.794Z,97395.06
2023-02-19T11:06:26.605Z,97397.47
2023-02-19T11:08:59.084Z,97396.91
2023-02-19T11:11:35.613Z,97399.94
2023-02-19T11:14:20.985Z,97400.34
2023-02-19T11:16:53.511Z,97389.22
2023-02-19T11:19:35.020Z,97400.56
2023-02-19T11:22:02.417Z,97398.84
2023-02-19T11:24:32.972Z,97393.41
2023-02-19T11:27:02.282Z,97401.13
2023-02-19T11:29:29.509Z,97393.25
2023-02-19T11:31:56.534Z,97384.84
2023-02-19T11:34:28.009Z,97383.03
2023-02-19T11:37:12.153Z,97392.44
2023-02-19T11:39:40.368Z,97387.66
2023-02-19T11:42:45.716Z,97387.59
2023-02-19T11:45:38.589Z,97390.16
2023-02-19T11:48:30.212Z,97394.84
2023-02-19T11:51:23.219Z,97384.56
2023-02-19T11:54:21.702Z,97374.66
2023-02-19T11:57:04.826Z,97383.88
2023-02-19T11:59:40.885Z,97381.53
2023-02-19T12:02:07.468Z,97381.78
2023-02-19T12:04:52.785Z,97373.13
2023-02-19T12:07:37.349Z,97385.34
2023-02-19T12:10:32.521Z,97378.53
2023-02-19T12:13:11.158Z,97379.75
2023-02-19T12:16:12.166Z,97385.25
2023-02-19T12:18:58.188Z,97383.78
2023-02-19T12:21:46.052Z,97393.47
2023-02-19T12:24:50.233Z,97392.28
2023-02-19T12:27:30.653Z,97383.44
2023-02-19T12:30:42.379Z,97394.84
2023-02-19T12:33:21.103Z,97394.13
2023-02-19T12:36:02.308Z,97393.81
2023-02-19T12:38:43.861Z,97393.88
2023-02-19T12:41:28.496Z,97385.69
2023-02-19T12:44:41.382Z,97394.09
2023-02-19T12:47:13.133Z,97388.09
2023-02-19T12:49:47.198Z,97377.16
2023-02-19T12:52:23.175Z,97383.66
2023-02-19T12:54:55.807Z,97380.25
2023-02-19T12:57:27.907Z,97378.25
2023-02-19T13:00:20.704Z,97380.09
2023-02-19T13:02:59.389Z,97375.69
2023-02-19T13:05:32.724Z,97389.06
2023-02-19T13:08:12.976Z,97382.63
2023-02-19T13:10:48.585Z,97375.16
2023-02-19T13:13:30.709Z,97372.03
2023-02-19T13:16:04.067Z,97370.81
2023-02-19T13:18:40.009Z,97372.25
2023-02-19T13:21:07.427Z,97370.94
2023-02-19T13:23:39.407Z,97371.31
2023-02-19T13:26:32.429Z,97370.63
2023-02-19T13:29:11.205Z,97367.44
2023-02-19T13:32:15.235Z,97373.72
2023-02-19T13:35:11.442Z,97367.09
2023-02-19T13:37:38.316Z,97363.19
2023-02-19T13:40:23.119Z,97380.41
2023-02-19T13:42:56.252Z,97372.13
2023-02-19T13:45:39.504Z,97364.75
2023-02-19T13:48:24.471Z,97365.16
2023-02-19T13:51:17.293Z,97368.50
2023-02-19T13:53:43.863Z,97366.53
2023-02-19T13:56:32.324Z,97362.28
2023-02-19T13:59:10.903Z,97368.41
2023-02-19T14:01:49.436Z,97368.22
2023-02-19T14:04:42.296Z,97365.47
2023-02-19T14:07:08.697Z,97367.59
2023-02-19T14:09:38.022Z,97370.28
2023-02-19T14:12:19.449Z,97364.41
2023-02-19T14:14:49.052Z,97362.44
2023-02-19T14:17:15.525Z,97351.69
2023-02-19T14:19:42.110Z,97353.38
2023-02-19T14:22:45.841Z,97348.22
2023-02-19T14:25:39.220Z,97345.88
2023-02-19T14:28:18.333Z,97345.00
2023-02-19T14:31:17.183Z,97340.13
2023-02-19T14:33:50.498Z,97341.72
2023-02-19T14:36:39.326Z,97346.88
2023-02-19T14:39:20.274Z,97340.91
2023-02-19T14:41:51.287Z,97339.34
2023-02-19T14:44:27.611Z,97345.81
2023-02-19T14:47:05.729Z,97338.25
2023-02-19T14:49:35.771Z,97344.06
2023-02-19T14:52:08.494Z,97339.69
2023-02-19T14:54:52.271Z,97343.59
2023-02-19T14:57:32.740Z,97340.69
2023-02-19T15:00:01.802Z,97345.47
2023-02-19T15:02:32.090Z,97345.72
2023-02-19T15:04:58.831Z,97338.19
2023-02-19T15:07:29.979Z,97344.94
2023-02-19T15:10:00.882Z,97346.34
2023-02-19T15:12:34.118Z,97339.59
2023-02-19T15:15:03.514Z,97336.84
2023-02-19T15:17:33.507Z,97338.63
2023-02-19T15:20:05.557Z,97352.03
2023-02-19T15:22:32.643Z,97351.44
2023-02-19T15:25:03.794Z,97349.28
2023-02-19T15:27:31.237Z,97342.28
2023-02-19T15:29:57.721Z,97344.13
2023-02-19T15:32:26.521Z,97346.78
2023-02-19T15:34:58.468Z,97334.69
2023-02-19T15:37:29.875Z,97344.66
2023-02-19T15:39:58.889Z,97335.94
2023-02-19T15:42:30.808Z,97340.91
2023-02-19T15:45:00.248Z,97342.34
2023-02-19T15:47:49.316Z,97339.13
2023-02-19T15:50:22.502Z,97342.50
2023-02-19T15:53:05.295Z,97339.59
2023-02-19T15:55:31.752Z,97341.91
2023-02-19T15:58:09.566Z,97343.69
2023-02-19T16:00:41.779Z,97346.16
2023-02-19T16:03:17.234Z,97349.53
2023-02-19T16:05:43.837Z,97355.13
2023-02-19T16:08:19.893Z,97350.59
2023-02-19T16:11:01.160Z,97354.00
2023-02-19T16:13:30.331Z,97352.66
2023-02-19T16:16:26.285Z,97348.13
2023-02-19T16:18:53.563Z,97355.84
2023-02-19T16:21:22.602Z,97348.91
2023-02-19T16:23:56.689Z,97350.69
2023-02-19T16:26:23.198Z,97357.47
2023-02-19T16:28:52.725Z,97354.25
2023-02-19T16:31:22.494Z,97359.59
2023-02-19T16:33:50.425Z,97357.81
2023-02-19T16:36:34.022Z,97359.22
2023-02-19T16:39:14.523Z,97360.03
2023-02-19T16:41:41.018Z,97358.88
2023-02-19T16:44:25.943Z,97357.72
2023-02-19T16:47:06.951Z,97353.16
2023-02-19T16:49:33.818Z,97353.78
2023-02-19T16:52:04.082Z,97356.00
2023-02-19T16:54:31.052Z,97348.25
2023-02-19T16:56:57.599Z,97344.69
2023-02-19T16:59:24.148Z,97347.88
2023-02-19T17:01:50.782Z,97352.06
2023-02-19T17:04:17.344Z,97346.53
2023-02-19T17:06:43.921Z,97345.38
2023-02-19T17:09:10.582Z,97346.78
2023-02-19T17:11:37.396Z,97353.56
2023-02-19T17:14:03.960Z,97344.81
2023-02-19T17:16:32.916Z,97346.44
2023-02-19T17:18:59.538Z,97340.28
2023-02-19T17:21:28.499Z,97340.91
2023-02-19T17:23:55.769Z,97344.09
2023-02-19T17:26:25.402Z,97342.50
2023-02-19T17:28:52.140Z,97344.09
2023-02-19T17:31:18.988Z,97343.09
2023-02-19T17:33:45.592Z,97351.66
2023-02-19T17:36:32.739Z,97352.44
2023-02-19T17:39:00.703Z,97350.66
2023-02-19T17:41:27.949Z,97347.47
2023-02-19T17:43:54.709Z,97350.84
2023-02-19T17:46:24.192Z,97349.69
2023-02-19T17:48:51.478Z,97347.09
2023-02-19T17:51:18.050Z,97348.69
2023-02-19T17:53:45.069Z,97343.34
2023-02-19T17:56:18.904Z,97344.94
2023-02-19T17:58:46.251Z,97345.75
2023-02-19T18:01:13.481Z,97346.56
2023-02-19T18:03:40.464Z,97349.94
2023-02-19T18:06:07.336Z,97348.94
2023-02-19T18:08:34.167Z,97346.38
2023-02-19T18:11:00.845Z,97355.91
2023-02-19T18:13:27.354Z,97353.31
2023-02-19T18:15:53.966Z,97348.16
2023-02-19T18:18:21.314Z,97351.72
2023-02-19T18:20:47.791Z,97351.91
2023-02-19T18:23:14.453Z,97351.91
2023-02-19T18:25:41.111Z,97349.13
2023-02-19T18:28:07.642Z,97346.56
2023-02-19T18:30:34.270Z,97350.72
2023-02-19T18:33:01.642Z,97357.50
2023-02-19T18:35:28.124Z,97353.75
2023-02-19T18:37:54.888Z,97349.38
2023-02-19T18:40:23.297Z,97352.75
2023-02-19T18:42:49.819Z,97351.75
2023-02-19T18:45:16.501Z,97354.31
2023-02-19T18:47:47.185Z,97360.91
2023-02-19T18:50:16.793Z,97352.53
2023-02-19T18:52:43.281Z,97353.34
2023-02-19T18:55:11.877Z,97353.16
2023-02-19T18:57:38.454Z,97354.94
2023-02-19T19:00:06.523Z,97353.34
2023-02-19T19:02:48.354Z,97355.13
2023-02-19T19:05:18.180Z,97358.72
2023-02-19T19:07:44.790Z,97357.13
2023-02-19T19:10:11.406Z,97360.28
2023-02-19T19:12:37.901Z,97353.75
2023-02-19T19:15:04.782Z,97353.94
2023-02-19T19:17:31.299Z,97358.09
2023-02-19T19:19:57.805Z,97358.09
2023-02-19T19:22:25.050Z,97358.09
2023-02-19T19:24:51.617Z,97370.03
2023-02-19T19:27:19.741Z,97356.91
2023-02-19T19:29:46.765Z,97357.91
2023-02-19T19:32:14.134Z,97351.75
2023-02-19T19:34:41.213Z,97350.75
2023-02-19T19:37:07.893Z,97354.13
2023-02-19T19:39:34.514Z,97359.31
2023-02-19T19:42:01.012Z,97360.09
2023-02-19T19:44:27.970Z,97358.31
2023-02-19T19:46:54.586Z,97347.00
2023-02-19T19:49:22.852Z,97347.81
2023-02-19T19:51:49.610Z,97345.22
2023-02-19T19:54:16.138Z,97349.41
2023-02-19T19:56:44.395Z,97351.19
2023-02-19T19:59:15.157Z,97345.03
2023-02-19T20:01:52.353Z,97346.22
2023-02-19T20:04:21.489Z,97346.41
2023-02-19T20:06:48.785Z,97347.38
2023-02-19T20:09:17.762Z,97349.97
2023-02-19T20:11:49.396Z,97350.19
2023-02-19T20:14:17.012Z,97346.59
2023-02-19T20:16:44.747Z,97350.97
2023-02-19T20:19:11.442Z,97351.56
2023-02-19T20:21:38.102Z,97347.38
2023-02-19T20:24:05.012Z,97349.78
2023-02-19T20:26:32.052Z,97347.38
2023-02-19T20:28:58.693Z,97344.44
2023-02-19T20:31:25.861Z,97342.03
2023-02-19T20:33:52.792Z,97338.28
2023-02-19T20:36:19.536Z,97335.69
2023-02-19T20:38:46.603Z,97341.47
2023-02-19T20:41:13.411Z,97338.88
2023-02-19T20:43:40.117Z,97343.06
2023-02-19T20:46:06.658Z,97333.72
2023-02-19T20:48:33.240Z,97333.13
2023-02-19T20:51:00.350Z,97338.28
2023-02-19T20:53:27.607Z,97337.66
2023-02-19T20:55:54.308Z,97336.88
2023-02-19T20:58:21.134Z,97337.06
2023-02-19T21:00:48.375Z,97338.25
2023-02-19T21:03:15.232Z,97351.34
2023-02-19T21:05:42.464Z,97342.38
2023-02-19T21:08:09.132Z,97338.19
2023-02-19T21:10:35.728Z,97346.31
2023-02-19T21:13:02.248Z,97345.69
2023-02-19T21:15:28.843Z,97346.06
2023-02-19T21:17:55.597Z,97341.25
2023-02-19T21:20:22.181Z,97341.44
2023-02-19T21:22:48.782Z,97341.63
2023-02-19T21:25:16.180Z,97344.22
2023-02-19T21:27:42.635Z,97338.63
2023-02-19T21:30:09.410Z,97338.81
2023-02-19T21:32:36.192Z,97331.25
2023-02-19T21:35:02.782Z,97343.53
2023-02-19T21:37:29.370Z,97336.78
2023-02-19T21:39:55.979Z,97335.16
2023-02-19T21:42:22.464Z,97338.72
2023-02-19T21:44:48.941Z,97338.91
2023-02-19T21:47:15.734Z,97327.78
2023-02-19T21:49:42.891Z,97333.16
2023-02-19T21:52:10.358Z,97329.16
2023-02-19T21:54:36.936Z,97332.53
2023-02-19T21:57:03.693Z,97340.25
2023-02-19T21:59:30.322Z,97334.13
2023-02-19T22:01:57.103Z,97337.94
2023-02-19T22:04:23.692Z,97342.91
2023-02-19T22:06:50.493Z,97340.50
2023-02-19T22:09:17.064Z,97338.13
2023-02-19T22:11:43.614Z,97326.00
2023-02-19T22:14:10.146Z,97340.69
2023-02-19T22:16:36.880Z,97334.91
2023-02-19T22:19:03.423Z,97333.50
2023-02-19T22:21:31.620Z,97330.31
2023-02-19T22:23:58.674Z,97340.00
2023-02-19T22:26:31.767Z,97338.59
2023-02-19T22:28:58.490Z,97333.97
2023-02-19T22:31:27.553Z,97329.81
2023-02-19T22:33:55.725Z,97330.16
2023-02-19T22:36:25.556Z,97331.16
2023-02-19T22:38:52.738Z,97331.78
2023-02-19T22:41:20.107Z,97338.16
2023-02-19T22:43:47.253Z,97331.66
2023-02-19T22:46:20.100Z,97332.88
2023-02-19T22:48:47.320Z,97329.94
2023-02-19T22:51:16.843Z,97341.88
2023-02-19T22:53:53.940Z,97334.75
2023-02-19T22:56:22.745Z,97337.13
2023-02-19T22:58:49.625Z,97335.00
2023-02-19T23:01:16.291Z,97335.59
2023-02-19T23:03:46.902Z,97335.59
2023-02-19T23:06:14.150Z,97339.97
2023-02-19T23:08:41.585Z,97332.41
2023-02-19T23:11:08.495Z,97334.38
2023-02-19T23:13:35.048Z,97327.97
2023-02-19T23:16:02.460Z,97333.50
2023-02-19T23:18:29.000Z,97329.50
2023-02-19T23:20:55.541Z,97333.88
2023-02-19T23:23:22.112Z,97330.31
2023-02-19T23:25:48.573Z,97326.13
2023-02-19T23:28:15.121Z,97331.91
2023-02-19T23:30:41.804Z,97334.31
2023-02-19T23:33:08.426Z,97331.53
2023-02-19T23:35:34.985Z,97329.75
2023-02-19T23:38:01.579Z,97326.38
2023-02-19T23:40:28.077Z,97334.31
2023-02-19T23:42:54.561Z,97331.91
2023-02-19T23:45:21.060Z,97330.31
2023-02-19T23:47:47.634Z,97325.50
2023-02-19T23:50:16.132Z,97329.25
2023-02-19T23:52:42.762Z,97334.78
2023-02-19T23:55:09.414Z,97328.56
2023-02-19T23:57:35.917Z,97327.38
